sensor_id;sensor_type;location;lat;lon;timestamp;P1;durP1;ratioP1;P2;durP2;ratioP2
20067;SDS011;10194;50.824;7.134;2022-11-12T00:00:40;312.50;;;283.47;;
20067;SDS011;10194;50.824;7.134;2022-11-12T00:03:06;310.83;;;281.73;;
20067;SDS011;10194;50.824;7.134;2022-11-12T00:05:32;308.47;;;279.90;;
20067;SDS011;10194;50.824;7.134;2022-11-12T00:07:59;313.50;;;284.40;;
20067;SDS011;10194;50.824;7.134;2022-11-12T00:10:25;316.93;;;286.37;;
20067;SDS011;10194;50.824;7.134;2022-11-12T00:12:51;317.10;;;286.87;;
20067;SDS011;10194;50.824;7.134;2022-11-12T00:15:17;317.57;;;288.13;;
20067;SDS011;10194;50.824;7.134;2022-11-12T00:17:43;319.17;;;289.57;;
20067;SDS011;10194;50.824;7.134;2022-11-12T00:20:09;317.90;;;288.60;;
20067;SDS011;10194;50.824;7.134;2022-11-12T00:22:36;323.17;;;293.30;;
20067;SDS011;10194;50.824;7.134;2022-11-12T00:25:02;316.93;;;288.27;;
20067;SDS011;10194;50.824;7.134;2022-11-12T00:27:30;323.10;;;293.90;;
20067;SDS011;10194;50.824;7.134;2022-11-12T00:29:57;320.00;;;289.93;;
20067;SDS011;10194;50.824;7.134;2022-11-12T00:32:23;331.13;;;299.33;;
20067;SDS011;10194;50.824;7.134;2022-11-12T00:34:48;323.37;;;293.97;;
20067;SDS011;10194;50.824;7.134;2022-11-12T00:37:14;319.40;;;289.93;;
20067;SDS011;10194;50.824;7.134;2022-11-12T00:39:41;318.50;;;289.40;;
20067;SDS011;10194;50.824;7.134;2022-11-12T00:42:07;324.80;;;295.23;;
20067;SDS011;10194;50.824;7.134;2022-11-12T00:44:32;318.00;;;289.00;;
20067;SDS011;10194;50.824;7.134;2022-11-12T00:46:58;321.13;;;291.53;;
20067;SDS011;10194;50.824;7.134;2022-11-12T00:49:24;321.67;;;292.47;;
20067;SDS011;10194;50.824;7.134;2022-11-12T00:51:50;320.50;;;291.07;;
20067;SDS011;10194;50.824;7.134;2022-11-12T00:54:15;328.00;;;298.60;;
20067;SDS011;10194;50.824;7.134;2022-11-12T00:56:41;327.23;;;297.57;;
20067;SDS011;10194;50.824;7.134;2022-11-12T00:59:10;333.43;;;303.13;;
20067;SDS011;10194;50.824;7.134;2022-11-12T01:01:36;333.80;;;303.60;;
20067;SDS011;10194;50.824;7.134;2022-11-12T01:04:02;331.90;;;301.63;;
20067;SDS011;10194;50.824;7.134;2022-11-12T01:06:27;335.67;;;305.17;;
20067;SDS011;10194;50.824;7.134;2022-11-12T01:08:53;332.07;;;302.10;;
20067;SDS011;10194;50.824;7.134;2022-11-12T01:11:21;339.73;;;308.60;;
20067;SDS011;10194;50.824;7.134;2022-11-12T01:13:58;329.07;;;298.93;;
20067;SDS011;10194;50.824;7.134;2022-11-12T01:16:29;327.80;;;297.70;;
20067;SDS011;10194;50.824;7.134;2022-11-12T01:19:00;332.83;;;302.93;;
20067;SDS011;10194;50.824;7.134;2022-11-12T01:21:28;336.53;;;306.10;;
20067;SDS011;10194;50.824;7.134;2022-11-12T01:23:57;333.03;;;302.83;;
20067;SDS011;10194;50.824;7.134;2022-11-12T01:26:25;333.33;;;303.40;;
20067;SDS011;10194;50.824;7.134;2022-11-12T01:28:54;329.63;;;299.23;;
20067;SDS011;10194;50.824;7.134;2022-11-12T01:31:22;327.33;;;297.23;;
20067;SDS011;10194;50.824;7.134;2022-11-12T01:33:51;335.00;;;304.30;;
20067;SDS011;10194;50.824;7.134;2022-11-12T01:36:22;332.53;;;302.00;;
20067;SDS011;10194;50.824;7.134;2022-11-12T01:38:50;331.90;;;301.77;;
20067;SDS011;10194;50.824;7.134;2022-11-12T01:41:22;331.67;;;301.73;;
20067;SDS011;10194;50.824;7.134;2022-11-12T01:46:59;335.00;;;303.70;;
20067;SDS011;10194;50.824;7.134;2022-11-12T01:49:44;334.27;;;303.63;;
20067;SDS011;10194;50.824;7.134;2022-11-12T01:55:04;336.87;;;306.10;;
20067;SDS011;10194;50.824;7.134;2022-11-12T01:57:38;337.80;;;306.50;;
20067;SDS011;10194;50.824;7.134;2022-11-12T02:00:10;342.23;;;311.10;;
20067;SDS011;10194;50.824;7.134;2022-11-12T02:02:38;335.57;;;305.30;;
20067;SDS011;10194;50.824;7.134;2022-11-12T02:05:08;335.97;;;305.90;;
20067;SDS011;10194;50.824;7.134;2022-11-12T02:07:35;331.57;;;301.03;;
20067;SDS011;10194;50.824;7.134;2022-11-12T02:10:03;333.13;;;302.70;;
20067;SDS011;10194;50.824;7.134;2022-11-12T02:12:32;338.27;;;307.73;;
20067;SDS011;10194;50.824;7.134;2022-11-12T02:15:16;333.33;;;302.53;;
20067;SDS011;10194;50.824;7.134;2022-11-12T02:17:42;333.50;;;303.00;;
20067;SDS011;10194;50.824;7.134;2022-11-12T02:20:10;327.30;;;297.90;;
20067;SDS011;10194;50.824;7.134;2022-11-12T02:22:38;335.03;;;304.63;;
20067;SDS011;10194;50.824;7.134;2022-11-12T02:25:04;336.57;;;306.37;;
20067;SDS011;10194;50.824;7.134;2022-11-12T02:27:31;336.60;;;306.00;;
20067;SDS011;10194;50.824;7.134;2022-11-12T02:29:57;336.80;;;305.80;;
20067;SDS011;10194;50.824;7.134;2022-11-12T02:32:22;332.93;;;302.40;;
20067;SDS011;10194;50.824;7.134;2022-11-12T02:34:48;336.07;;;305.80;;
20067;SDS011;10194;50.824;7.134;2022-11-12T02:37:14;333.40;;;302.77;;
20067;SDS011;10194;50.824;7.134;2022-11-12T02:39:39;330.03;;;299.40;;
20067;SDS011;10194;50.824;7.134;2022-11-12T02:42:05;330.03;;;299.80;;
20067;SDS011;10194;50.824;7.134;2022-11-12T02:44:31;329.30;;;299.23;;
20067;SDS011;10194;50.824;7.134;2022-11-12T02:46:57;332.47;;;301.93;;
20067;SDS011;10194;50.824;7.134;2022-11-12T02:49:22;325.93;;;295.73;;
20067;SDS011;10194;50.824;7.134;2022-11-12T02:51:48;334.57;;;304.00;;
20067;SDS011;10194;50.824;7.134;2022-11-12T02:54:14;330.40;;;300.00;;
20067;SDS011;10194;50.824;7.134;2022-11-12T02:56:40;331.10;;;300.83;;
20067;SDS011;10194;50.824;7.134;2022-11-12T02:59:05;330.50;;;299.93;;
20067;SDS011;10194;50.824;7.134;2022-11-12T03:01:31;334.23;;;303.97;;
20067;SDS011;10194;50.824;7.134;2022-11-12T03:03:57;328.93;;;299.17;;
20067;SDS011;10194;50.824;7.134;2022-11-12T03:06:23;334.07;;;303.70;;
20067;SDS011;10194;50.824;7.134;2022-11-12T03:08:49;328.97;;;298.70;;
20067;SDS011;10194;50.824;7.134;2022-11-12T03:11:15;325.93;;;295.67;;
20067;SDS011;10194;50.824;7.134;2022-11-12T03:13:42;331.23;;;301.20;;
20067;SDS011;10194;50.824;7.134;2022-11-12T03:16:09;332.73;;;302.23;;
20067;SDS011;10194;50.824;7.134;2022-11-12T03:18:34;330.27;;;299.83;;
20067;SDS011;10194;50.824;7.134;2022-11-12T03:21:01;326.27;;;295.93;;
20067;SDS011;10194;50.824;7.134;2022-11-12T03:23:28;329.50;;;298.80;;
20067;SDS011;10194;50.824;7.134;2022-11-12T03:25:54;325.43;;;295.57;;
20067;SDS011;10194;50.824;7.134;2022-11-12T03:28:19;331.53;;;301.40;;
20067;SDS011;10194;50.824;7.134;2022-11-12T03:30:45;328.30;;;298.23;;
20067;SDS011;10194;50.824;7.134;2022-11-12T03:33:11;329.30;;;299.27;;
20067;SDS011;10194;50.824;7.134;2022-11-12T03:35:39;327.00;;;296.40;;
20067;SDS011;10194;50.824;7.134;2022-11-12T03:38:05;326.23;;;295.93;;
20067;SDS011;10194;50.824;7.134;2022-11-12T03:40:31;330.43;;;300.23;;
20067;SDS011;10194;50.824;7.134;2022-11-12T03:42:58;333.00;;;301.53;;
20067;SDS011;10194;50.824;7.134;2022-11-12T03:45:24;333.40;;;302.97;;
20067;SDS011;10194;50.824;7.134;2022-11-12T03:47:52;333.77;;;303.33;;
20067;SDS011;10194;50.824;7.134;2022-11-12T03:50:22;337.07;;;306.73;;
20067;SDS011;10194;50.824;7.134;2022-11-12T03:52:52;337.23;;;306.07;;
20067;SDS011;10194;50.824;7.134;2022-11-12T03:55:21;334.80;;;304.53;;
20067;SDS011;10194;50.824;7.134;2022-11-12T03:57:50;333.20;;;301.83;;
20067;SDS011;10194;50.824;7.134;2022-11-12T04:00:17;326.17;;;295.83;;
20067;SDS011;10194;50.824;7.134;2022-11-12T04:02:45;326.87;;;296.33;;
20067;SDS011;10194;50.824;7.134;2022-11-12T04:05:11;327.03;;;297.13;;
20067;SDS011;10194;50.824;7.134;2022-11-12T04:07:59;326.83;;;297.03;;
20067;SDS011;10194;50.824;7.134;2022-11-12T04:10:49;336.03;;;306.27;;
20067;SDS011;10194;50.824;7.134;2022-11-12T04:13:15;332.07;;;301.50;;
20067;SDS011;10194;50.824;7.134;2022-11-12T04:15:57;334.23;;;304.43;;
20067;SDS011;10194;50.824;7.134;2022-11-12T04:18:52;342.50;;;312.90;;
20067;SDS011;10194;50.824;7.134;2022-11-12T04:21:39;347.87;;;318.37;;
20067;SDS011;10194;50.824;7.134;2022-11-12T04:24:33;341.83;;;312.90;;
20067;SDS011;10194;50.824;7.134;2022-11-12T04:27:23;344.23;;;314.60;;
20067;SDS011;10194;50.824;7.134;2022-11-12T04:29:54;337.70;;;307.77;;
20067;SDS011;10194;50.824;7.134;2022-11-12T04:32:39;340.97;;;310.83;;
20067;SDS011;10194;50.824;7.134;2022-11-12T04:35:16;330.93;;;301.03;;
20067;SDS011;10194;50.824;7.134;2022-11-12T04:37:43;329.37;;;299.03;;
20067;SDS011;10194;50.824;7.134;2022-11-12T04:42:59;341.20;;;311.60;;
20067;SDS011;10194;50.824;7.134;2022-11-12T04:45:46;344.73;;;315.27;;
20067;SDS011;10194;50.824;7.134;2022-11-12T04:48:18;344.20;;;314.27;;
20067;SDS011;10194;50.824;7.134;2022-11-12T04:50:46;345.07;;;315.50;;
20067;SDS011;10194;50.824;7.134;2022-11-12T04:53:15;341.33;;;311.10;;
20067;SDS011;10194;50.824;7.134;2022-11-12T04:55:41;343.50;;;313.77;;
20067;SDS011;10194;50.824;7.134;2022-11-12T04:58:06;341.20;;;311.43;;
20067;SDS011;10194;50.824;7.134;2022-11-12T05:00:32;339.47;;;309.43;;
20067;SDS011;10194;50.824;7.134;2022-11-12T05:02:58;339.50;;;309.03;;
20067;SDS011;10194;50.824;7.134;2022-11-12T05:05:24;336.60;;;306.87;;
20067;SDS011;10194;50.824;7.134;2022-11-12T05:07:49;342.00;;;312.27;;
20067;SDS011;10194;50.824;7.134;2022-11-12T05:10:15;344.83;;;314.93;;
20067;SDS011;10194;50.824;7.134;2022-11-12T05:12:41;346.63;;;317.40;;
20067;SDS011;10194;50.824;7.134;2022-11-12T05:15:08;353.67;;;324.17;;
20067;SDS011;10194;50.824;7.134;2022-11-12T05:17:35;349.17;;;320.27;;
20067;SDS011;10194;50.824;7.134;2022-11-12T05:20:06;353.47;;;322.60;;
20067;SDS011;10194;50.824;7.134;2022-11-12T05:22:33;356.00;;;326.83;;
20067;SDS011;10194;50.824;7.134;2022-11-12T05:24:59;347.73;;;319.13;;
20067;SDS011;10194;50.824;7.134;2022-11-12T05:27:24;351.90;;;323.07;;
20067;SDS011;10194;50.824;7.134;2022-11-12T05:29:50;347.63;;;318.33;;
20067;SDS011;10194;50.824;7.134;2022-11-12T05:32:16;357.13;;;327.80;;
20067;SDS011;10194;50.824;7.134;2022-11-12T05:34:42;355.70;;;327.27;;
20067;SDS011;10194;50.824;7.134;2022-11-12T05:37:09;358.77;;;330.20;;
20067;SDS011;10194;50.824;7.134;2022-11-12T05:39:37;362.20;;;333.97;;
20067;SDS011;10194;50.824;7.134;2022-11-12T05:42:03;364.00;;;335.40;;
20067;SDS011;10194;50.824;7.134;2022-11-12T05:44:29;360.57;;;331.87;;
20067;SDS011;10194;50.824;7.134;2022-11-12T05:46:55;358.03;;;329.67;;
20067;SDS011;10194;50.824;7.134;2022-11-12T05:49:21;359.73;;;331.27;;
20067;SDS011;10194;50.824;7.134;2022-11-12T05:51:47;367.93;;;338.97;;
20067;SDS011;10194;50.824;7.134;2022-11-12T05:54:12;364.67;;;335.87;;
20067;SDS011;10194;50.824;7.134;2022-11-12T05:56:38;369.37;;;341.10;;
20067;SDS011;10194;50.824;7.134;2022-11-12T05:59:05;371.07;;;342.17;;
20067;SDS011;10194;50.824;7.134;2022-11-12T06:01:33;365.47;;;337.50;;
20067;SDS011;10194;50.824;7.134;2022-11-12T06:04:02;363.43;;;335.47;;
20067;SDS011;10194;50.824;7.134;2022-11-12T06:06:28;366.17;;;337.70;;
20067;SDS011;10194;50.824;7.134;2022-11-12T06:08:54;366.50;;;338.33;;
20067;SDS011;10194;50.824;7.134;2022-11-12T06:11:20;364.43;;;336.30;;
20067;SDS011;10194;50.824;7.134;2022-11-12T06:13:46;367.67;;;339.37;;
20067;SDS011;10194;50.824;7.134;2022-11-12T06:16:11;365.73;;;337.40;;
20067;SDS011;10194;50.824;7.134;2022-11-12T06:18:37;362.17;;;334.20;;
20067;SDS011;10194;50.824;7.134;2022-11-12T06:21:03;365.83;;;336.97;;
20067;SDS011;10194;50.824;7.134;2022-11-12T06:23:48;366.20;;;337.53;;
20067;SDS011;10194;50.824;7.134;2022-11-12T06:26:25;365.67;;;337.33;;
20067;SDS011;10194;50.824;7.134;2022-11-12T06:28:53;366.97;;;338.57;;
20067;SDS011;10194;50.824;7.134;2022-11-12T06:31:19;367.73;;;339.60;;
20067;SDS011;10194;50.824;7.134;2022-11-12T06:33:45;365.70;;;337.17;;
20067;SDS011;10194;50.824;7.134;2022-11-12T06:36:13;362.23;;;333.57;;
20067;SDS011;10194;50.824;7.134;2022-11-12T06:38:41;366.10;;;337.63;;
20067;SDS011;10194;50.824;7.134;2022-11-12T06:41:08;363.23;;;334.37;;
20067;SDS011;10194;50.824;7.134;2022-11-12T06:43:36;368.40;;;339.93;;
20067;SDS011;10194;50.824;7.134;2022-11-12T06:46:04;365.43;;;337.00;;
20067;SDS011;10194;50.824;7.134;2022-11-12T06:48:38;361.70;;;333.07;;
20067;SDS011;10194;50.824;7.134;2022-11-12T06:51:07;362.87;;;334.13;;
20067;SDS011;10194;50.824;7.134;2022-11-12T06:53:43;363.40;;;334.00;;
20067;SDS011;10194;50.824;7.134;2022-11-12T06:56:09;349.27;;;319.93;;
20067;SDS011;10194;50.824;7.134;2022-11-12T06:58:35;355.67;;;326.17;;
20067;SDS011;10194;50.824;7.134;2022-11-12T07:01:19;349.83;;;320.70;;
20067;SDS011;10194;50.824;7.134;2022-11-12T07:03:45;355.20;;;326.10;;
20067;SDS011;10194;50.824;7.134;2022-11-12T07:06:12;348.97;;;319.37;;
20067;SDS011;10194;50.824;7.134;2022-11-12T07:08:42;348.10;;;317.80;;
20067;SDS011;10194;50.824;7.134;2022-11-12T07:11:08;344.53;;;314.97;;
20067;SDS011;10194;50.824;7.134;2022-11-12T07:13:34;348.93;;;319.90;;
20067;SDS011;10194;50.824;7.134;2022-11-12T07:16:01;358.20;;;328.77;;
20067;SDS011;10194;50.824;7.134;2022-11-12T07:18:29;360.83;;;331.60;;
20067;SDS011;10194;50.824;7.134;2022-11-12T07:21:00;356.93;;;327.77;;
20067;SDS011;10194;50.824;7.134;2022-11-12T07:23:33;363.40;;;334.47;;
20067;SDS011;10194;50.824;7.134;2022-11-12T07:26:02;364.53;;;335.67;;
20067;SDS011;10194;50.824;7.134;2022-11-12T07:28:43;368.40;;;339.77;;
20067;SDS011;10194;50.824;7.134;2022-11-12T07:31:10;367.27;;;337.80;;
20067;SDS011;10194;50.824;7.134;2022-11-12T07:33:37;364.80;;;335.23;;
20067;SDS011;10194;50.824;7.134;2022-11-12T07:36:10;366.27;;;337.07;;
20067;SDS011;10194;50.824;7.134;2022-11-12T07:38:38;362.47;;;333.27;;
20067;SDS011;10194;50.824;7.134;2022-11-12T07:41:06;354.63;;;325.27;;
20067;SDS011;10194;50.824;7.134;2022-11-12T07:43:34;349.47;;;320.00;;
20067;SDS011;10194;50.824;7.134;2022-11-12T07:46:02;353.33;;;323.23;;
20067;SDS011;10194;50.824;7.134;2022-11-12T07:48:31;350.07;;;319.70;;
20067;SDS011;10194;50.824;7.134;2022-11-12T07:51:05;347.30;;;317.23;;
20067;SDS011;10194;50.824;7.134;2022-11-12T07:53:36;350.93;;;320.27;;
20067;SDS011;10194;50.824;7.134;2022-11-12T07:56:02;348.13;;;317.80;;
20067;SDS011;10194;50.824;7.134;2022-11-12T07:58:29;355.83;;;325.93;;
20067;SDS011;10194;50.824;7.134;2022-11-12T08:00:57;352.33;;;322.67;;
20067;SDS011;10194;50.824;7.134;2022-11-12T08:03:32;353.57;;;323.30;;
20067;SDS011;10194;50.824;7.134;2022-11-12T08:05:59;345.57;;;314.80;;
20067;SDS011;10194;50.824;7.134;2022-11-12T08:08:25;349.60;;;318.53;;
20067;SDS011;10194;50.824;7.134;2022-11-12T08:10:55;348.80;;;318.73;;
20067;SDS011;10194;50.824;7.134;2022-11-12T08:13:22;344.90;;;314.30;;
20067;SDS011;10194;50.824;7.134;2022-11-12T08:15:48;349.80;;;318.53;;
20067;SDS011;10194;50.824;7.134;2022-11-12T08:18:14;347.17;;;316.03;;
20067;SDS011;10194;50.824;7.134;2022-11-12T08:20:42;342.30;;;310.80;;
20067;SDS011;10194;50.824;7.134;2022-11-12T08:23:08;340.33;;;309.27;;
20067;SDS011;10194;50.824;7.134;2022-11-12T08:25:35;340.87;;;309.73;;
20067;SDS011;10194;50.824;7.134;2022-11-12T08:28:01;338.90;;;307.80;;
20067;SDS011;10194;50.824;7.134;2022-11-12T08:30:27;340.63;;;309.70;;
20067;SDS011;10194;50.824;7.134;2022-11-12T08:32:54;346.07;;;314.20;;
20067;SDS011;10194;50.824;7.134;2022-11-12T08:35:23;346.60;;;315.60;;
20067;SDS011;10194;50.824;7.134;2022-11-12T08:37:50;342.67;;;311.80;;
20067;SDS011;10194;50.824;7.134;2022-11-12T08:40:16;347.43;;;315.97;;
20067;SDS011;10194;50.824;7.134;2022-11-12T08:42:42;347.90;;;316.43;;
20067;SDS011;10194;50.824;7.134;2022-11-12T08:45:08;347.03;;;316.43;;
20067;SDS011;10194;50.824;7.134;2022-11-12T08:47:34;350.80;;;319.77;;
20067;SDS011;10194;50.824;7.134;2022-11-12T08:50:00;344.53;;;313.73;;
20067;SDS011;10194;50.824;7.134;2022-11-12T08:52:26;343.47;;;312.90;;
20067;SDS011;10194;50.824;7.134;2022-11-12T08:54:52;345.20;;;314.43;;
20067;SDS011;10194;50.824;7.134;2022-11-12T08:57:18;341.53;;;310.83;;
20067;SDS011;10194;50.824;7.134;2022-11-12T08:59:44;342.00;;;311.63;;
20067;SDS011;10194;50.824;7.134;2022-11-12T09:02:12;345.10;;;314.80;;
20067;SDS011;10194;50.824;7.134;2022-11-12T09:04:38;336.97;;;307.10;;
20067;SDS011;10194;50.824;7.134;2022-11-12T09:07:04;338.67;;;308.43;;
20067;SDS011;10194;50.824;7.134;2022-11-12T09:09:30;338.30;;;307.97;;
20067;SDS011;10194;50.824;7.134;2022-11-12T09:11:55;338.97;;;308.97;;
20067;SDS011;10194;50.824;7.134;2022-11-12T09:14:21;337.80;;;307.63;;
20067;SDS011;10194;50.824;7.134;2022-11-12T09:16:47;335.07;;;305.10;;
20067;SDS011;10194;50.824;7.134;2022-11-12T09:19:12;333.63;;;304.13;;
20067;SDS011;10194;50.824;7.134;2022-11-12T09:21:38;339.40;;;309.17;;
20067;SDS011;10194;50.824;7.134;2022-11-12T09:24:04;343.33;;;312.63;;
20067;SDS011;10194;50.824;7.134;2022-11-12T09:26:30;336.83;;;306.63;;
20067;SDS011;10194;50.824;7.134;2022-11-12T09:28:56;338.20;;;307.93;;
20067;SDS011;10194;50.824;7.134;2022-11-12T09:31:22;333.57;;;303.60;;
20067;SDS011;10194;50.824;7.134;2022-11-12T09:33:49;340.10;;;309.93;;
20067;SDS011;10194;50.824;7.134;2022-11-12T09:36:15;339.20;;;309.07;;
20067;SDS011;10194;50.824;7.134;2022-11-12T09:38:41;338.77;;;308.53;;
20067;SDS011;10194;50.824;7.134;2022-11-12T09:41:13;334.50;;;304.47;;
20067;SDS011;10194;50.824;7.134;2022-11-12T09:43:51;335.10;;;304.77;;
20067;SDS011;10194;50.824;7.134;2022-11-12T09:46:27;336.10;;;306.17;;
20067;SDS011;10194;50.824;7.134;2022-11-12T09:49:14;337.20;;;307.37;;
20067;SDS011;10194;50.824;7.134;2022-11-12T09:51:53;340.00;;;309.90;;
20067;SDS011;10194;50.824;7.134;2022-11-12T09:54:32;341.93;;;311.13;;
20067;SDS011;10194;50.824;7.134;2022-11-12T09:57:00;334.57;;;304.53;;
20067;SDS011;10194;50.824;7.134;2022-11-12T09:59:27;325.27;;;295.67;;
20067;SDS011;10194;50.824;7.134;2022-11-12T10:01:58;327.37;;;297.37;;
20067;SDS011;10194;50.824;7.134;2022-11-12T10:19:54;323.73;;;293.13;;
20067;SDS011;10194;50.824;7.134;2022-11-12T10:25:14;313.93;;;284.03;;
20067;SDS011;10194;50.824;7.134;2022-11-12T10:27:43;307.20;;;276.40;;
20067;SDS011;10194;50.824;7.134;2022-11-12T10:30:14;300.83;;;270.93;;
20067;SDS011;10194;50.824;7.134;2022-11-12T10:32:46;303.57;;;272.77;;
20067;SDS011;10194;50.824;7.134;2022-11-12T10:35:15;300.10;;;270.33;;
20067;SDS011;10194;50.824;7.134;2022-11-12T10:37:50;297.07;;;267.27;;
20067;SDS011;10194;50.824;7.134;2022-11-12T10:40:33;297.87;;;268.07;;
20067;SDS011;10194;50.824;7.134;2022-11-12T10:43:18;303.30;;;273.23;;
20067;SDS011;10194;50.824;7.134;2022-11-12T10:45:47;290.23;;;260.67;;
20067;SDS011;10194;50.824;7.134;2022-11-12T10:48:25;292.23;;;262.87;;
20067;SDS011;10194;50.824;7.134;2022-11-12T10:50:59;299.40;;;269.53;;
20067;SDS011;10194;50.824;7.134;2022-11-12T10:53:35;293.57;;;263.80;;
20067;SDS011;10194;50.824;7.134;2022-11-12T10:56:04;281.10;;;251.47;;
20067;SDS011;10194;50.824;7.134;2022-11-12T11:01:44;266.03;;;234.23;;
20067;SDS011;10194;50.824;7.134;2022-11-12T11:04:15;260.50;;;228.73;;
20067;SDS011;10194;50.824;7.134;2022-11-12T11:07:21;258.63;;;219.80;;
20067;SDS011;10194;50.824;7.134;2022-11-12T11:09:53;254.30;;;211.17;;
20067;SDS011;10194;50.824;7.134;2022-11-12T11:12:29;255.00;;;201.10;;
20067;SDS011;10194;50.824;7.134;2022-11-12T11:17:53;249.03;;;192.80;;
20067;SDS011;10194;50.824;7.134;2022-11-12T11:22:52;265.77;;;202.77;;
20067;SDS011;10194;50.824;7.134;2022-11-12T11:25:53;251.17;;;190.97;;
20067;SDS011;10194;50.824;7.134;2022-11-12T11:31:17;249.37;;;178.37;;
20067;SDS011;10194;50.824;7.134;2022-11-12T11:34:02;255.60;;;195.17;;
20067;SDS011;10194;50.824;7.134;2022-11-12T11:39:40;246.83;;;182.43;;
20067;SDS011;10194;50.824;7.134;2022-11-12T11:45:17;250.03;;;189.03;;
20067;SDS011;10194;50.824;7.134;2022-11-12T11:48:20;243.70;;;176.13;;
20067;SDS011;10194;50.824;7.134;2022-11-12T11:57:15;252.20;;;193.93;;
20067;SDS011;10194;50.824;7.134;2022-11-12T12:05:45;256.73;;;215.53;;
20067;SDS011;10194;50.824;7.134;2022-11-12T12:22:59;297.73;;;267.20;;
20067;SDS011;10194;50.824;7.134;2022-11-12T12:25:16;295.37;;;265.27;;
20067;SDS011;10194;50.824;7.134;2022-11-12T12:27:49;298.77;;;268.37;;
20067;SDS011;10194;50.824;7.134;2022-11-12T12:30:28;305.17;;;274.83;;
20067;SDS011;10194;50.824;7.134;2022-11-12T12:33:02;313.33;;;282.23;;
20067;SDS011;10194;50.824;7.134;2022-11-12T12:38:31;305.10;;;275.20;;
20067;SDS011;10194;50.824;7.134;2022-11-12T12:43:52;306.37;;;276.13;;
20067;SDS011;10194;50.824;7.134;2022-11-12T12:46:27;306.97;;;276.80;;
20067;SDS011;10194;50.824;7.134;2022-11-12T12:48:58;312.70;;;282.17;;
20067;SDS011;10194;50.824;7.134;2022-11-12T12:51:27;307.83;;;277.73;;
20067;SDS011;10194;50.824;7.134;2022-11-12T12:53:55;311.43;;;281.33;;
20067;SDS011;10194;50.824;7.134;2022-11-12T12:58:47;300.27;;;271.03;;
20067;SDS011;10194;50.824;7.134;2022-11-12T13:03:52;301.33;;;271.93;;
20067;SDS011;10194;50.824;7.134;2022-11-12T13:11:52;299.43;;;269.67;;
20067;SDS011;10194;50.824;7.134;2022-11-12T13:17:00;292.93;;;263.93;;
20067;SDS011;10194;50.824;7.134;2022-11-12T13:43:40;251.67;;;224.77;;
20067;SDS011;10194;50.824;7.134;2022-11-12T13:48:37;238.93;;;213.03;;
20067;SDS011;10194;50.824;7.134;2022-11-12T13:51:19;226.60;;;192.63;;
20067;SDS011;10194;50.824;7.134;2022-11-12T13:53:46;231.97;;;204.63;;
20067;SDS011;10194;50.824;7.134;2022-11-12T13:56:22;227.03;;;195.13;;
20067;SDS011;10194;50.824;7.134;2022-11-12T14:01:43;225.57;;;192.70;;
20067;SDS011;10194;50.824;7.134;2022-11-12T14:04:10;227.23;;;192.20;;
20067;SDS011;10194;50.824;7.134;2022-11-12T14:06:39;223.07;;;186.03;;
20067;SDS011;10194;50.824;7.134;2022-11-12T14:15:22;255.60;;;228.40;;
20067;SDS011;10194;50.824;7.134;2022-11-12T14:18:20;235.63;;;209.40;;
20067;SDS011;10194;50.824;7.134;2022-11-12T14:21:30;252.27;;;225.40;;
20067;SDS011;10194;50.824;7.134;2022-11-12T14:23:55;245.50;;;219.00;;
20067;SDS011;10194;50.824;7.134;2022-11-12T14:29:17;247.53;;;220.93;;
20067;SDS011;10194;50.824;7.134;2022-11-12T14:31:43;254.03;;;227.47;;
20067;SDS011;10194;50.824;7.134;2022-11-12T14:34:25;242.33;;;216.07;;
20067;SDS011;10194;50.824;7.134;2022-11-12T14:36:57;252.07;;;225.20;;
20067;SDS011;10194;50.824;7.134;2022-11-12T14:39:24;246.57;;;219.93;;
20067;SDS011;10194;50.824;7.134;2022-11-12T14:41:53;256.50;;;229.67;;
20067;SDS011;10194;50.824;7.134;2022-11-12T14:44:22;250.97;;;224.10;;
20067;SDS011;10194;50.824;7.134;2022-11-12T14:46:56;248.63;;;221.73;;
20067;SDS011;10194;50.824;7.134;2022-11-12T14:54:50;271.50;;;243.60;;
20067;SDS011;10194;50.824;7.134;2022-11-12T14:57:27;262.47;;;235.27;;
20067;SDS011;10194;50.824;7.134;2022-11-12T14:59:55;254.07;;;226.80;;
20067;SDS011;10194;50.824;7.134;2022-11-12T15:02:28;243.97;;;217.40;;
20067;SDS011;10194;50.824;7.134;2022-11-12T15:05:30;235.70;;;209.27;;
20067;SDS011;10194;50.824;7.134;2022-11-12T15:10:32;237.53;;;211.00;;
20067;SDS011;10194;50.824;7.134;2022-11-12T15:13:02;240.00;;;211.23;;
20067;SDS011;10194;50.824;7.134;2022-11-12T15:15:31;252.87;;;225.93;;
20067;SDS011;10194;50.824;7.134;2022-11-12T15:18:03;248.83;;;222.20;;
20067;SDS011;10194;50.824;7.134;2022-11-12T15:20:38;263.17;;;235.70;;
20067;SDS011;10194;50.824;7.134;2022-11-12T15:23:04;250.23;;;223.67;;
20067;SDS011;10194;50.824;7.134;2022-11-12T15:25:30;260.27;;;232.70;;
20067;SDS011;10194;50.824;7.134;2022-11-12T15:30:59;287.13;;;258.73;;
20067;SDS011;10194;50.824;7.134;2022-11-12T15:33:31;291.50;;;262.83;;
20067;SDS011;10194;50.824;7.134;2022-11-12T15:36:00;294.50;;;265.70;;
20067;SDS011;10194;50.824;7.134;2022-11-12T15:38:33;287.17;;;259.07;;
20067;SDS011;10194;50.824;7.134;2022-11-12T15:41:01;292.40;;;263.20;;
20067;SDS011;10194;50.824;7.134;2022-11-12T15:43:30;291.27;;;262.63;;
20067;SDS011;10194;50.824;7.134;2022-11-12T15:45:59;297.60;;;268.37;;
20067;SDS011;10194;50.824;7.134;2022-11-12T15:48:26;297.07;;;268.07;;
20067;SDS011;10194;50.824;7.134;2022-11-12T15:50:53;297.17;;;268.17;;
20067;SDS011;10194;50.824;7.134;2022-11-12T15:53:19;301.70;;;271.90;;
20067;SDS011;10194;50.824;7.134;2022-11-12T15:55:45;300.90;;;271.67;;
20067;SDS011;10194;50.824;7.134;2022-11-12T15:58:26;296.73;;;267.67;;
20067;SDS011;10194;50.824;7.134;2022-11-12T16:00:58;296.13;;;267.33;;
20067;SDS011;10194;50.824;7.134;2022-11-12T16:03:24;295.40;;;266.80;;
20067;SDS011;10194;50.824;7.134;2022-11-12T16:05:50;294.47;;;265.73;;
20067;SDS011;10194;50.824;7.134;2022-11-12T16:08:16;295.23;;;266.13;;
20067;SDS011;10194;50.824;7.134;2022-11-12T16:10:42;298.70;;;268.63;;
20067;SDS011;10194;50.824;7.134;2022-11-12T16:13:51;293.43;;;264.47;;
20067;SDS011;10194;50.824;7.134;2022-11-12T16:15:59;292.10;;;263.33;;
20067;SDS011;10194;50.824;7.134;2022-11-12T16:18:29;295.40;;;266.63;;
20067;SDS011;10194;50.824;7.134;2022-11-12T16:20:55;292.20;;;263.40;;
20067;SDS011;10194;50.824;7.134;2022-11-12T16:23:20;296.20;;;267.10;;
20067;SDS011;10194;50.824;7.134;2022-11-12T16:25:46;293.80;;;264.70;;
20067;SDS011;10194;50.824;7.134;2022-11-12T16:28:16;291.60;;;262.73;;
20067;SDS011;10194;50.824;7.134;2022-11-12T16:30:43;295.07;;;266.13;;